createdAt,value
2022-10-11T00:01:08.666Z,6.01
2022-10-11T00:03:36.473Z,5.78
2022-10-11T00:06:06.068Z,5.90
2022-10-11T00:08:34.842Z,5.76
2022-10-11T00:11:06.687Z,5.90
2022-10-11T00:13:35.202Z,6.02
2022-10-11T00:16:12.674Z,5.94
2022-10-11T00:18:40.826Z,5.86
2022-10-11T00:21:16.978Z,5.65
2022-10-11T00:23:48.298Z,5.62
2022-10-11T00:26:24.010Z,5.66
2022-10-11T00:28:53.454Z,5.51
2022-10-11T00:31:48.713Z,5.71
2022-10-11T00:34:26.957Z,5.71
2022-10-11T00:36:55.772Z,5.78
2022-10-11T00:39:23.804Z,5.74
2022-10-11T00:41:52.721Z,5.67
2022-10-11T00:44:23.462Z,5.73
2022-10-11T00:46:56.676Z,5.56
2022-10-11T00:49:34.019Z,5.68
2022-10-11T00:52:04.592Z,5.37
2022-10-11T00:54:37.718Z,5.30
2022-10-11T00:57:09.063Z,5.26
2022-10-11T00:59:41.148Z,5.19
2022-10-11T01:02:12.393Z,5.38
2022-10-11T01:04:41.057Z,5.27
2022-10-11T01:07:12.892Z,5.05
2022-10-11T01:09:40.851Z,5.06
2022-10-11T01:12:17.746Z,5.05
2022-10-11T01:15:15.156Z,5.11
2022-10-11T01:17:51.610Z,5.27
2022-10-11T01:20:42.627Z,5.14
2022-10-11T01:23:32.812Z,5.03
2022-10-11T01:26:33.531Z,4.83
2022-10-11T01:29:13.547Z,4.74
2022-10-11T01:31:52.374Z,4.70
2022-10-11T01:34:28.350Z,4.68
2022-10-11T01:37:03.426Z,4.78
2022-10-11T01:39:37.357Z,4.80
2022-10-11T01:42:09.849Z,4.73
2022-10-11T01:44:42.746Z,4.63
2022-10-11T01:47:11.881Z,4.55
2022-10-11T01:49:39.621Z,4.86
2022-10-11T01:52:08.938Z,4.68
2022-10-11T01:55:14.337Z,4.72
2022-10-11T01:58:02.315Z,4.84
2022-10-11T02:00:42.197Z,4.91
2022-10-11T02:03:22.172Z,4.83
2022-10-11T02:05:55.885Z,4.73
2022-10-11T02:08:30.712Z,4.82
2022-10-11T02:11:05.763Z,4.71
2022-10-11T02:13:41.147Z,4.71
2022-10-11T02:16:19.037Z,4.57
2022-10-11T02:18:52.572Z,4.55
2022-10-11T02:21:24.563Z,4.61
2022-10-11T02:24:01.151Z,4.93
2022-10-11T02:26:34.603Z,4.95
2022-10-11T02:29:08.998Z,4.86
2022-10-11T02:31:38.555Z,4.70
2022-10-11T02:34:13.859Z,4.57
2022-10-11T02:36:51.836Z,4.41
2022-10-11T02:39:26.964Z,4.25
2022-10-11T02:41:58.676Z,4.30
2022-10-11T02:44:33.478Z,4.13
2022-10-11T02:47:02.496Z,4.16
2022-10-11T02:49:33.012Z,3.87
2022-10-11T02:52:01.036Z,3.70
2022-10-11T02:54:28.989Z,3.64
2022-10-11T02:56:58.198Z,3.90
2022-10-11T02:59:26.254Z,3.69
2022-10-11T03:01:56.649Z,3.68
2022-10-11T03:04:24.909Z,3.96
2022-10-11T03:06:54.223Z,4.29
2022-10-11T03:09:22.436Z,3.96
2022-10-11T03:11:50.500Z,3.79
2022-10-11T03:14:18.267Z,3.56
2022-10-11T03:16:46.183Z,3.59
2022-10-11T03:19:18.396Z,3.52
2022-10-11T03:21:47.251Z,3.62
2022-10-11T03:24:17.015Z,3.59
2022-10-11T03:26:47.005Z,3.58
2022-10-11T03:29:15.023Z,3.40
2022-10-11T03:31:42.856Z,3.64
2022-10-11T03:34:10.711Z,3.57
2022-10-11T03:36:38.544Z,3.74
2022-10-11T03:39:06.800Z,3.98
2022-10-11T03:41:37.027Z,3.83
2022-10-11T03:44:05.105Z,3.81
2022-10-11T03:46:32.878Z,3.99
2022-10-11T03:49:00.692Z,4.07
2022-10-11T03:51:29.132Z,4.37
2022-10-11T03:53:57.059Z,4.55
2022-10-11T03:56:24.925Z,4.37
2022-10-11T03:58:54.412Z,3.97
2022-10-11T04:01:22.396Z,3.83
2022-10-11T04:03:50.396Z,3.81
2022-10-11T04:06:18.238Z,3.86
2022-10-11T04:08:46.121Z,4.30
2022-10-11T04:11:13.994Z,3.95
2022-10-11T04:13:41.858Z,3.85
2022-10-11T04:16:11.054Z,3.96
2022-10-11T04:18:39.044Z,4.24
2022-10-11T04:21:07.496Z,4.03
2022-10-11T04:23:35.641Z,4.04
2022-10-11T04:26:06.890Z,4.17
2022-10-11T04:28:36.128Z,4.08
2022-10-11T04:31:05.139Z,4.18
2022-10-11T04:33:34.420Z,4.41
2022-10-11T04:36:02.636Z,4.58
2022-10-11T04:38:30.832Z,4.13
2022-10-11T04:41:07.145Z,3.84
2022-10-11T04:43:35.118Z,3.76
2022-10-11T04:46:02.987Z,3.81
2022-10-11T04:48:31.532Z,4.17
2022-10-11T04:51:00.671Z,4.10
2022-10-11T04:53:30.107Z,3.82
2022-10-11T04:56:01.309Z,3.72
2022-10-11T04:58:30.788Z,3.83
2022-10-11T05:00:59.303Z,3.94
2022-10-11T05:03:27.863Z,4.31
2022-10-11T05:05:55.719Z,4.54
2022-10-11T05:08:25.378Z,4.64
2022-10-11T05:10:57.778Z,4.70
2022-10-11T05:13:26.316Z,4.67
2022-10-11T05:15:54.555Z,4.46
2022-10-11T05:18:24.195Z,4.60
2022-10-11T05:21:15.939Z,4.79
2022-10-11T05:23:46.490Z,4.79
2022-10-11T05:26:14.584Z,4.97
2022-10-11T05:28:42.563Z,4.96
2022-10-11T05:31:10.524Z,5.09
2022-10-11T05:33:38.340Z,5.24
2022-10-11T05:36:08.527Z,5.30
2022-10-11T05:38:37.106Z,5.23
2022-10-11T05:41:09.556Z,5.20
2022-10-11T05:43:37.575Z,5.40
2022-10-11T05:46:05.952Z,5.36
2022-10-11T05:48:34.386Z,5.39
2022-10-11T05:51:03.303Z,5.35
2022-10-11T05:53:31.532Z,5.36
2022-10-11T05:55:59.740Z,5.42
2022-10-11T05:58:31.556Z,5.40
2022-10-11T06:01:00.931Z,5.40
2022-10-11T06:03:29.215Z,5.21
2022-10-11T06:05:57.465Z,5.13
2022-10-11T06:08:25.445Z,5.14
2022-10-11T06:10:55.562Z,5.19
2022-10-11T06:13:23.453Z,4.97
2022-10-11T06:15:52.600Z,5.00
2022-10-11T06:18:20.975Z,5.20
2022-10-11T06:20:51.971Z,5.37
2022-10-11T06:23:20.194Z,5.38
2022-10-11T06:25:57.243Z,5.45
2022-10-11T06:28:25.190Z,5.54
2022-10-11T06:30:54.485Z,5.55
2022-10-11T06:33:22.905Z,5.59
2022-10-11T06:35:51.003Z,5.54
2022-10-11T06:38:19.084Z,5.62
2022-10-11T06:40:46.931Z,5.67
2022-10-11T06:43:14.846Z,5.76
2022-10-11T06:45:42.725Z,5.80
2022-10-11T06:48:13.358Z,5.87
2022-10-11T06:50:58.998Z,5.93
2022-10-11T06:53:28.448Z,5.97
2022-10-11T06:56:03.372Z,6.03
2022-10-11T06:58:31.492Z,6.13
2022-10-11T07:01:02.819Z,6.19
2022-10-11T07:03:32.394Z,6.30
2022-10-11T07:06:04.858Z,6.37
2022-10-11T07:08:33.034Z,6.44
2022-10-11T07:11:01.912Z,6.43
2022-10-11T07:13:30.334Z,6.49
2022-10-11T07:15:58.304Z,6.63
2022-10-11T07:18:26.071Z,6.67
2022-10-11T07:20:56.052Z,6.79
2022-10-11T07:23:25.249Z,6.84
2022-10-11T07:25:55.081Z,7.13
2022-10-11T07:28:23.345Z,7.33
2022-10-11T07:30:51.890Z,7.42
2022-10-11T07:33:19.884Z,7.48
2022-10-11T07:35:48.697Z,7.71
2022-10-11T07:38:18.666Z,7.83
2022-10-11T07:40:47.456Z,8.08
2022-10-11T07:43:15.647Z,8.61
2022-10-11T07:45:45.445Z,9.30
2022-10-11T07:48:13.426Z,9.86
2022-10-11T07:50:41.198Z,9.96
2022-10-11T07:53:09.973Z,9.96
2022-10-11T07:55:42.482Z,10.05
2022-10-11T07:58:11.055Z,10.44
2022-10-11T08:00:39.551Z,10.61
2022-10-11T08:03:08.290Z,11.36
2022-10-11T08:05:38.646Z,11.51
2022-10-11T08:08:07.020Z,12.01
2022-10-11T08:10:40.239Z,12.38
2022-10-11T08:13:09.567Z,11.73
2022-10-11T08:15:37.813Z,11.91
2022-10-11T08:18:05.903Z,12.65
2022-10-11T08:20:34.004Z,12.51
2022-10-11T08:23:01.947Z,12.84
2022-10-11T08:25:30.357Z,12.61
2022-10-11T08:27:58.256Z,12.95
2022-10-11T08:30:27.706Z,13.17
2022-10-11T08:32:55.624Z,13.40
2022-10-11T08:35:23.671Z,13.30
2022-10-11T08:37:51.572Z,13.01
2022-10-11T08:40:22.514Z,11.98
2022-10-11T08:42:59.760Z,12.78
2022-10-11T08:45:36.658Z,13.90
2022-10-11T08:48:14.291Z,14.31
2022-10-11T08:50:45.499Z,14.60
2022-10-11T08:53:23.115Z,15.49
2022-10-11T08:55:52.396Z,15.56
2022-10-11T08:58:24.272Z,16.03
2022-10-11T09:00:57.692Z,15.47
2022-10-11T09:03:32.255Z,15.88
2022-10-11T09:06:09.679Z,16.31
2022-10-11T09:08:58.818Z,16.85
2022-10-11T09:11:44.707Z,17.36
2022-10-11T09:14:41.280Z,17.09
2022-10-11T09:17:21.434Z,16.57
2022-10-11T09:20:04.682Z,17.41
2022-10-11T09:22:45.483Z,16.68
2022-10-11T09:25:24.224Z,16.60
2022-10-11T09:28:04.219Z,16.69
2022-10-11T09:30:33.189Z,17.35
2022-10-11T09:33:13.342Z,17.94
2022-10-11T09:35:45.225Z,17.88
2022-10-11T09:38:22.308Z,16.22
2022-10-11T09:41:01.536Z,16.20
2022-10-11T09:43:29.592Z,16.75
2022-10-11T09:45:57.597Z,16.10
2022-10-11T09:48:30.042Z,16.77
2022-10-11T09:51:05.800Z,17.75
2022-10-11T09:53:52.132Z,18.22
2022-10-11T09:56:20.038Z,18.63
2022-10-11T09:58:48.045Z,18.90
2022-10-11T10:01:25.431Z,18.96
2022-10-11T10:04:10.936Z,18.06
2022-10-11T10:06:40.118Z,17.83
2022-10-11T10:09:30.362Z,16.37
2022-10-11T10:11:59.192Z,17.36
2022-10-11T10:14:30.718Z,18.01
2022-10-11T10:17:06.542Z,18.61
2022-10-11T10:19:45.313Z,17.66
2022-10-11T10:22:20.113Z,17.62
2022-10-11T10:24:49.974Z,17.87
2022-10-11T10:27:22.136Z,18.36
2022-10-11T10:30:15.838Z,17.84
2022-10-11T10:32:49.795Z,17.89
2022-10-11T10:35:33.488Z,16.88
2022-10-11T10:38:09.297Z,16.37
2022-10-11T10:40:42.137Z,16.27
2022-10-11T10:43:16.801Z,16.58
2022-10-11T10:46:16.748Z,17.97
2022-10-11T10:51:52.721Z,17.81
2022-10-11T10:54:35.690Z,18.18
2022-10-11T10:57:11.181Z,17.71
2022-10-11T10:59:59.945Z,17.58
2022-10-11T11:02:40.809Z,17.72
2022-10-11T11:05:22.160Z,16.83
2022-10-11T11:07:56.108Z,16.17
2022-10-11T11:10:34.935Z,15.96
2022-10-11T11:13:18.995Z,16.13
2022-10-11T11:15:53.755Z,17.10
2022-10-11T11:18:29.995Z,18.90
2022-10-11T11:21:20.203Z,18.48
2022-10-11T11:24:02.148Z,17.80
2022-10-11T11:26:38.686Z,16.61
2022-10-11T11:29:19.735Z,15.98
2022-10-11T11:32:01.784Z,17.29
2022-10-11T11:34:34.315Z,18.97
2022-10-11T11:37:06.674Z,19.32
2022-10-11T11:39:40.157Z,18.21
2022-10-11T11:42:14.865Z,16.98
2022-10-11T11:44:46.781Z,17.83
2022-10-11T11:47:20.533Z,19.36
2022-10-11T11:49:52.205Z,19.97
2022-10-11T11:52:26.838Z,19.27
2022-10-11T11:55:05.982Z,19.57
2022-10-11T11:57:49.477Z,18.86
2022-10-11T12:00:20.683Z,20.30
2022-10-11T12:02:53.150Z,19.66
2022-10-11T12:05:24.299Z,20.39
2022-10-11T12:07:59.582Z,19.47
2022-10-11T12:10:36.685Z,19.74
2022-10-11T12:13:18.055Z,19.44
2022-10-11T12:16:10.795Z,19.66
2022-10-11T12:18:53.260Z,19.36
2022-10-11T12:21:30.610Z,20.04
2022-10-11T12:23:59.916Z,19.79
2022-10-11T12:26:40.711Z,19.43
2022-10-11T12:29:43.650Z,20.73
2022-10-11T12:32:51.061Z,19.73
2022-10-11T12:35:55.429Z,20.81
2022-10-11T12:38:24.531Z,20.09
2022-10-11T12:40:54.710Z,20.18
2022-10-11T12:43:33.602Z,20.81
2022-10-11T12:46:39.385Z,20.30
2022-10-11T12:49:36.220Z,21.00
2022-10-11T12:52:06.919Z,21.09
2022-10-11T12:55:04.071Z,22.08
2022-10-11T12:58:16.874Z,21.22
2022-10-11T13:01:17.869Z,20.60
2022-10-11T13:03:50.921Z,20.91
2022-10-11T13:06:22.048Z,20.14
2022-10-11T13:08:55.050Z,20.83
2022-10-11T13:11:26.359Z,20.00
2022-10-11T13:13:56.975Z,21.95
2022-10-11T13:16:28.229Z,21.83
2022-10-11T13:18:59.567Z,20.56
2022-10-11T13:21:30.949Z,22.18
2022-10-11T13:24:01.382Z,21.52
2022-10-11T13:26:31.699Z,21.08
2022-10-11T13:29:01.216Z,21.21
2022-10-11T13:31:33.014Z,21.00
2022-10-11T13:34:01.112Z,20.73
2022-10-11T13:36:31.527Z,20.68
2022-10-11T13:39:01.792Z,20.73
2022-10-11T13:41:31.702Z,20.62
2022-10-11T13:44:03.444Z,21.06
2022-10-11T13:46:41.082Z,22.07
2022-10-11T13:49:29.096Z,22.68
2022-10-11T13:52:02.415Z,22.74
2022-10-11T13:54:55.465Z,21.76
2022-10-11T13:57:25.284Z,21.28
2022-10-11T13:59:53.173Z,22.34
2022-10-11T14:02:24.217Z,20.39
2022-10-11T14:04:52.154Z,19.89
2022-10-11T14:07:27.191Z,19.88
2022-10-11T14:09:55.914Z,19.54
2022-10-11T14:12:38.131Z,20.67
2022-10-11T14:15:07.798Z,21.97
2022-10-11T14:17:41.823Z,21.05
2022-10-11T14:20:18.235Z,21.89
2022-10-11T14:22:46.122Z,21.03
2022-10-11T14:25:14.327Z,22.37
2022-10-11T14:27:42.705Z,22.32
2022-10-11T14:30:31.997Z,22.25
2022-10-11T14:33:03.357Z,23.02
2022-10-11T14:35:33.281Z,19.79
2022-10-11T14:38:01.349Z,18.26
2022-10-11T14:40:31.558Z,17.13
2022-10-11T14:42:59.915Z,16.78
2022-10-11T14:45:27.857Z,16.69
2022-10-11T14:47:57.058Z,16.45
2022-10-11T14:50:36.433Z,15.89
2022-10-11T14:53:05.886Z,16.00
2022-10-11T14:55:34.144Z,16.11
2022-10-11T14:58:02.294Z,15.82
2022-10-11T15:00:32.390Z,16.32
2022-10-11T15:03:01.857Z,16.86
2022-10-11T15:05:34.611Z,17.52
2022-10-11T15:08:08.971Z,17.35
2022-10-11T15:10:39.216Z,16.63
2022-10-11T15:13:12.030Z,16.20
2022-10-11T15:15:45.749Z,16.25
2022-10-11T15:18:18.747Z,15.45
2022-10-11T15:24:01.752Z,15.47
2022-10-11T15:26:33.047Z,15.25
2022-10-11T15:29:01.232Z,15.16
2022-10-11T15:31:29.256Z,15.06
2022-10-11T15:33:59.593Z,15.11
2022-10-11T15:36:28.931Z,14.91
2022-10-11T15:38:58.183Z,14.88
2022-10-11T15:41:26.131Z,14.81
2022-10-11T15:43:54.647Z,14.74
2022-10-11T15:46:23.919Z,14.75
2022-10-11T15:48:54.345Z,14.76
2022-10-11T15:51:22.354Z,14.85
2022-10-11T15:53:50.639Z,14.93
2022-10-11T15:56:20.048Z,14.81
2022-10-11T15:58:48.166Z,14.78
2022-10-11T16:01:18.769Z,14.63
2022-10-11T16:03:47.260Z,14.43
2022-10-11T16:06:15.473Z,14.35
2022-10-11T16:08:44.624Z,14.11
2022-10-11T16:11:15.682Z,13.90
2022-10-11T16:13:46.212Z,13.68
2022-10-11T16:16:14.295Z,13.50
2022-10-11T16:18:47.473Z,13.22
2022-10-11T16:21:16.513Z,12.92
2022-10-11T16:23:45.209Z,12.61
2022-10-11T16:26:16.369Z,12.30
2022-10-11T16:28:49.903Z,12.02
2022-10-11T16:31:20.931Z,11.74
2022-10-11T16:33:50.117Z,11.52
2022-10-11T16:36:40.654Z,11.32
2022-10-11T16:39:12.011Z,11.06
2022-10-11T16:41:40.242Z,10.85
2022-10-11T16:44:13.403Z,10.55
2022-10-11T16:46:41.570Z,10.34
2022-10-11T16:49:09.504Z,10.21
2022-10-11T16:51:37.503Z,10.10
2022-10-11T16:54:05.919Z,9.88
2022-10-11T16:56:38.864Z,9.75
2022-10-11T16:59:09.297Z,9.47
2022-10-11T17:01:37.732Z,9.25
2022-10-11T17:04:06.065Z,9.26
2022-10-11T17:06:34.177Z,9.34
2022-10-11T17:09:02.197Z,9.10
2022-10-11T17:11:30.291Z,8.94
2022-10-11T17:13:58.512Z,8.93
2022-10-11T17:16:28.159Z,8.90
2022-10-11T17:18:56.087Z,8.80
2022-10-11T17:21:23.962Z,8.91
2022-10-11T17:23:51.832Z,9.13
2022-10-11T17:26:23.244Z,9.21
2022-10-11T17:28:51.232Z,9.08
2022-10-11T17:31:19.346Z,9.05
2022-10-11T17:33:50.505Z,8.90
2022-10-11T17:36:22.544Z,8.96
2022-10-11T17:38:51.712Z,8.90
2022-10-11T17:41:20.446Z,8.73
2022-10-11T17:43:48.854Z,8.71
2022-10-11T17:46:18.173Z,8.41
2022-10-11T17:48:46.247Z,8.31
2022-10-11T17:51:17.450Z,8.45
2022-10-11T17:53:48.194Z,8.18
2022-10-11T17:56:18.024Z,7.98
2022-10-11T17:58:47.061Z,8.08
2022-10-11T18:01:17.013Z,8.10
2022-10-11T18:03:52.694Z,7.85
2022-10-11T18:06:22.186Z,8.02
2022-10-11T18:08:50.235Z,8.21
2022-10-11T18:11:20.659Z,7.99
2022-10-11T18:13:50.037Z,7.92
2022-10-11T18:16:20.645Z,7.69
2022-10-11T18:18:48.728Z,7.46
2022-10-11T18:21:20.186Z,7.23
2022-10-11T18:23:52.795Z,7.15
2022-10-11T18:26:26.686Z,7.26
2022-10-11T18:28:58.429Z,7.67
2022-10-11T18:31:28.032Z,7.62
2022-10-11T18:33:56.539Z,7.69
2022-10-11T18:36:29.938Z,7.90
2022-10-11T18:39:01.580Z,7.74
2022-10-11T18:41:33.977Z,7.45
2022-10-11T18:44:04.287Z,7.13
2022-10-11T18:46:32.424Z,7.06
2022-10-11T18:49:02.063Z,7.27
2022-10-11T18:51:32.147Z,7.46
2022-10-11T18:54:02.202Z,7.42
2022-10-11T18:56:31.884Z,7.33
2022-10-11T18:59:00.754Z,6.96
2022-10-11T19:01:31.170Z,7.05
2022-10-11T19:04:02.477Z,7.32
2022-10-11T19:06:33.522Z,7.38
2022-10-11T19:09:05.583Z,7.15
2022-10-11T19:11:33.841Z,7.31
2022-10-11T19:14:03.820Z,7.09
2022-10-11T19:16:31.801Z,6.75
2022-10-11T19:18:59.694Z,6.72
2022-10-11T19:21:28.459Z,6.97
2022-10-11T19:23:57.136Z,7.12
2022-10-11T19:26:29.115Z,6.97
2022-10-11T19:28:58.521Z,7.15
2022-10-11T19:31:26.783Z,6.99
2022-10-11T19:33:54.749Z,6.97
2022-10-11T19:36:23.015Z,6.81
2022-10-11T19:38:54.552Z,6.68
2022-10-11T19:41:22.436Z,6.38
2022-10-11T19:43:52.477Z,6.25
2022-10-11T19:46:44.401Z,6.09
2022-10-11T19:49:12.062Z,5.94
2022-10-11T19:51:39.907Z,6.34
2022-10-11T19:54:11.756Z,6.38
2022-10-11T19:56:40.694Z,6.62
2022-10-11T19:59:12.053Z,6.59
2022-10-11T20:01:49.346Z,6.42
2022-10-11T20:04:50.605Z,6.40
2022-10-11T20:07:08.525Z,6.29
2022-10-11T20:09:36.837Z,6.33
2022-10-11T20:12:04.863Z,6.42
2022-10-11T20:14:34.323Z,6.40
2022-10-11T20:17:02.155Z,6.24
2022-10-11T20:19:31.600Z,6.24
2022-10-11T20:22:00.469Z,6.31
2022-10-11T20:24:32.581Z,6.32
2022-10-11T20:27:01.898Z,6.09
2022-10-11T20:29:29.987Z,6.05
2022-10-11T20:31:59.834Z,6.17
2022-10-11T20:34:28.262Z,5.97
2022-10-11T20:36:56.333Z,5.70
2022-10-11T20:39:24.737Z,5.61
2022-10-11T20:41:52.698Z,5.81
2022-10-11T20:44:20.632Z,5.85
2022-10-11T20:46:48.644Z,5.96
2022-10-11T20:49:20.680Z,6.08
2022-10-11T20:51:48.659Z,5.98
2022-10-11T20:54:16.737Z,6.05
2022-10-11T20:56:44.734Z,5.96
2022-10-11T20:59:13.857Z,6.34
2022-10-11T21:01:42.514Z,6.13
2022-10-11T21:04:18.309Z,6.09
2022-10-11T21:06:48.239Z,6.09
2022-10-11T21:09:17.484Z,5.93
2022-10-11T21:11:46.851Z,6.00
2022-10-11T21:14:17.214Z,5.90
2022-10-11T21:16:45.271Z,5.78
2022-10-11T21:19:17.115Z,5.86
2022-10-11T21:21:53.651Z,5.80
2022-10-11T21:24:22.547Z,5.81
2022-10-11T21:27:00.457Z,5.69
2022-10-11T21:29:28.902Z,5.74
2022-10-11T21:31:56.842Z,5.82
2022-10-11T21:34:24.767Z,5.77
2022-10-11T21:36:54.110Z,5.61
2022-10-11T21:39:22.171Z,5.65
2022-10-11T21:41:49.991Z,5.66
2022-10-11T21:44:17.949Z,5.60
2022-10-11T21:47:06.016Z,5.75
2022-10-11T21:49:33.820Z,5.51
2022-10-11T21:52:06.655Z,5.49
2022-10-11T21:54:34.656Z,5.55
2022-10-11T21:57:02.975Z,5.42
2022-10-11T21:59:31.070Z,5.35
2022-10-11T22:02:02.219Z,4.96
2022-10-11T22:04:30.519Z,4.77
2022-10-11T22:06:58.604Z,4.87
2022-10-11T22:09:29.871Z,5.02
2022-10-11T22:11:58.164Z,5.25
2022-10-11T22:14:26.121Z,5.21
2022-10-11T22:16:53.940Z,5.12
2022-10-11T22:19:22.123Z,5.22
2022-10-11T22:21:50.339Z,5.32
2022-10-11T22:24:19.401Z,5.36
2022-10-11T22:26:48.628Z,5.34
2022-10-11T22:29:16.563Z,5.27
2022-10-11T22:31:44.375Z,5.31
2022-10-11T22:34:13.019Z,5.00
2022-10-11T22:36:41.125Z,4.97
2022-10-11T22:39:10.191Z,4.70
2022-10-11T22:41:38.460Z,4.40
2022-10-11T22:44:08.006Z,4.16
2022-10-11T22:46:35.860Z,4.27
2022-10-11T22:49:03.854Z,4.44
2022-10-11T22:51:32.028Z,4.09
2022-10-11T22:54:02.102Z,4.10
2022-10-11T22:56:32.025Z,4.44
2022-10-11T22:59:00.585Z,4.41
2022-10-11T23:01:30.839Z,4.46
2022-10-11T23:03:58.909Z,4.39
2022-10-11T23:06:26.801Z,4.28
2022-10-11T23:08:54.583Z,4.47
2022-10-11T23:11:22.840Z,4.28
2022-10-11T23:13:51.820Z,4.18
2022-10-11T23:16:19.634Z,4.01
2022-10-11T23:18:48.943Z,3.93
2022-10-11T23:21:16.824Z,4.03
2022-10-11T23:23:47.176Z,4.22
2022-10-11T23:26:17.074Z,4.39
2022-10-11T23:28:45.518Z,4.47
2022-10-11T23:31:16.562Z,4.78
2022-10-11T23:33:45.056Z,5.21
2022-10-11T23:36:17.196Z,5.40
2022-10-11T23:38:45.302Z,5.51
2022-10-11T23:41:13.689Z,5.72
2022-10-11T23:43:41.647Z,5.64
2022-10-11T23:46:12.525Z,5.56
2022-10-11T23:48:41.386Z,5.42
2022-10-11T23:51:09.324Z,5.30
2022-10-11T23:53:38.832Z,5.33
2022-10-11T23:56:08.611Z,5.41
2022-10-11T23:58:36.561Z,5.10
